createdAt,value
2023-05-25T00:00:02.609Z,10.47
2023-05-25T00:02:33.891Z,13.17
2023-05-25T00:05:02.371Z,13.20
2023-05-25T00:07:33.145Z,12.37
2023-05-25T00:10:01.361Z,11.50
2023-05-25T00:12:29.829Z,13.50
2023-05-25T00:14:58.135Z,14.17
2023-05-25T00:17:32.114Z,12.20
2023-05-25T00:20:07.920Z,14.67
2023-05-25T00:22:36.548Z,10.87
2023-05-25T00:25:04.931Z,18.50
2023-05-25T00:27:33.206Z,12.57
2023-05-25T00:30:03.690Z,13.20
2023-05-25T00:32:33.364Z,11.27
2023-05-25T00:35:01.744Z,13.00
2023-05-25T00:37:30.026Z,15.27
2023-05-25T00:40:00.228Z,10.30
2023-05-25T00:42:29.390Z,12.57
2023-05-25T00:44:58.822Z,13.50
2023-05-25T00:47:27.491Z,16.03
2023-05-25T00:49:58.380Z,14.40
2023-05-25T00:52:27.187Z,9.30
2023-05-25T00:54:56.815Z,19.00
2023-05-25T00:57:29.368Z,12.17
2023-05-25T00:59:59.514Z,11.50
2023-05-25T01:02:31.142Z,11.10
2023-05-25T01:05:10.987Z,12.60
2023-05-25T01:07:40.604Z,16.10
2023-05-25T01:10:11.561Z,18.77
2023-05-25T01:12:48.226Z,15.27
2023-05-25T01:15:16.472Z,13.43
2023-05-25T01:17:54.144Z,17.63
2023-05-25T01:20:23.831Z,13.00
2023-05-25T01:23:03.048Z,12.93
2023-05-25T01:25:37.413Z,10.87
2023-05-25T01:28:10.664Z,11.57
2023-05-25T01:30:42.296Z,14.23
2023-05-25T01:33:12.135Z,19.43
2023-05-25T01:35:43.164Z,15.83
2023-05-25T01:38:13.085Z,11.33
2023-05-25T01:40:41.988Z,17.70
2023-05-25T01:43:12.060Z,18.17
2023-05-25T01:45:40.552Z,15.90
2023-05-25T01:48:31.520Z,23.00
2023-05-25T01:51:02.386Z,20.13
2023-05-25T01:53:36.939Z,14.50
2023-05-25T01:56:09.674Z,10.80
2023-05-25T01:58:43.950Z,20.97
2023-05-25T02:01:15.145Z,10.73
2023-05-25T02:03:44.871Z,16.30
2023-05-25T02:06:13.334Z,15.60
2023-05-25T02:08:43.960Z,17.73
2023-05-25T02:11:15.444Z,18.10
2023-05-25T02:13:43.629Z,11.40
2023-05-25T02:16:11.878Z,18.37
2023-05-25T02:18:46.050Z,17.60
2023-05-25T02:21:14.557Z,12.47
2023-05-25T02:23:44.371Z,15.40
2023-05-25T02:26:12.552Z,13.57
2023-05-25T02:28:40.845Z,17.60
2023-05-25T02:31:09.123Z,16.17
2023-05-25T02:33:37.350Z,15.47
2023-05-25T02:36:06.466Z,12.50
2023-05-25T02:38:34.690Z,10.83
2023-05-25T02:41:04.374Z,11.60
2023-05-25T02:43:32.813Z,24.37
2023-05-25T02:46:01.022Z,16.70
2023-05-25T02:48:29.333Z,11.53
2023-05-25T02:50:57.523Z,15.23
2023-05-25T02:53:25.820Z,15.90
2023-05-25T02:55:54.602Z,13.00
2023-05-25T02:58:27.657Z,13.53
2023-05-25T03:01:05.701Z,11.13
2023-05-25T03:03:36.944Z,12.10
2023-05-25T03:06:05.561Z,9.53
2023-05-25T03:08:34.045Z,14.77
2023-05-25T03:11:02.261Z,11.07
2023-05-25T03:13:31.800Z,13.90
2023-05-25T03:16:00.148Z,10.47
2023-05-25T03:18:28.674Z,14.03
2023-05-25T03:20:57.137Z,21.13
2023-05-25T03:23:25.947Z,11.97
2023-05-25T03:25:58.149Z,7.03
2023-05-25T03:28:26.536Z,14.30
2023-05-25T03:30:56.613Z,14.57
2023-05-25T03:33:24.874Z,10.63
2023-05-25T03:35:53.280Z,6.93
2023-05-25T03:38:21.469Z,11.80
2023-05-25T03:40:49.803Z,13.77
2023-05-25T03:43:18.189Z,15.83
2023-05-25T03:45:48.885Z,14.93
2023-05-25T03:48:19.579Z,18.67
2023-05-25T03:50:48.459Z,11.67
2023-05-25T03:53:17.544Z,10.67
2023-05-25T03:55:46.840Z,9.67
2023-05-25T03:58:16.153Z,10.43
2023-05-25T04:00:44.527Z,12.07
2023-05-25T04:03:12.911Z,15.40
2023-05-25T04:05:42.965Z,18.47
2023-05-25T04:08:11.449Z,14.73
2023-05-25T04:10:39.752Z,15.60
2023-05-25T04:13:07.904Z,9.00
2023-05-25T04:15:36.616Z,11.50
2023-05-25T04:18:09.972Z,13.07
2023-05-25T04:20:38.428Z,14.37
2023-05-25T04:23:09.083Z,12.97
2023-05-25T04:25:38.774Z,9.17
2023-05-25T04:28:08.599Z,14.20
2023-05-25T04:30:57.095Z,21.20
2023-05-25T04:33:40.781Z,15.00
2023-05-25T04:36:32.862Z,13.40
2023-05-25T04:39:04.835Z,14.67
2023-05-25T04:41:37.800Z,11.60
2023-05-25T04:44:10.575Z,10.30
2023-05-25T04:46:42.860Z,15.27
2023-05-25T04:49:16.934Z,13.80
2023-05-25T04:51:45.315Z,11.43
2023-05-25T04:54:15.219Z,13.07
2023-05-25T04:56:43.516Z,12.80
2023-05-25T04:59:12.076Z,14.20
2023-05-25T05:01:41.250Z,8.40
2023-05-25T05:04:12.507Z,14.37
2023-05-25T05:06:40.828Z,12.13
2023-05-25T05:09:12.220Z,20.90
2023-05-25T05:11:41.949Z,14.47
2023-05-25T05:14:10.283Z,9.63
2023-05-25T05:16:38.578Z,13.80
2023-05-25T05:19:07.207Z,13.40
2023-05-25T05:21:35.518Z,13.43
2023-05-25T05:24:06.789Z,13.10
2023-05-25T05:26:48.318Z,12.00
2023-05-25T05:29:26.977Z,11.50
2023-05-25T05:31:56.403Z,8.13
2023-05-25T05:34:25.198Z,15.50
2023-05-25T05:36:58.246Z,11.17
2023-05-25T05:39:29.078Z,10.93
2023-05-25T05:41:57.371Z,10.27
2023-05-25T05:44:29.338Z,8.40
2023-05-25T05:47:01.045Z,15.97
2023-05-25T05:49:30.966Z,7.50
2023-05-25T05:52:00.278Z,19.33
2023-05-25T05:54:29.159Z,16.17
2023-05-25T05:57:01.576Z,10.80
2023-05-25T05:59:31.313Z,14.40
2023-05-25T06:01:59.705Z,10.83
2023-05-25T06:04:29.149Z,12.90
2023-05-25T06:06:59.081Z,8.73
2023-05-25T06:09:27.607Z,21.27
2023-05-25T06:11:59.825Z,18.73
2023-05-25T06:14:28.843Z,9.43
2023-05-25T06:17:01.575Z,15.57
2023-05-25T06:19:30.065Z,11.77
2023-05-25T06:21:58.740Z,12.73
2023-05-25T06:24:26.950Z,6.77
2023-05-25T06:26:55.315Z,14.90
2023-05-25T06:29:23.660Z,12.60
2023-05-25T06:31:52.069Z,14.90
2023-05-25T06:34:22.131Z,18.87
2023-05-25T06:36:50.523Z,9.47
2023-05-25T06:39:20.274Z,12.43
2023-05-25T06:41:48.933Z,16.13
2023-05-25T06:44:27.530Z,14.33
2023-05-25T06:46:55.802Z,9.90
2023-05-25T06:49:27.875Z,9.07
2023-05-25T06:51:56.446Z,10.10
2023-05-25T06:54:24.652Z,19.57
2023-05-25T06:56:52.895Z,18.10
2023-05-25T06:59:21.205Z,15.60
2023-05-25T07:01:49.760Z,11.43
2023-05-25T07:04:18.235Z,11.33
2023-05-25T07:06:48.374Z,13.10
2023-05-25T07:09:17.385Z,9.50
2023-05-25T07:11:45.696Z,17.47
2023-05-25T07:14:16.134Z,16.00
2023-05-25T07:16:45.341Z,13.00
2023-05-25T07:19:13.681Z,10.27
2023-05-25T07:21:41.893Z,9.43
2023-05-25T07:24:11.521Z,10.57
2023-05-25T07:26:40.570Z,14.07
2023-05-25T07:29:08.818Z,20.40
2023-05-25T07:31:37.008Z,11.53
2023-05-25T07:34:05.266Z,12.13
2023-05-25T07:36:33.452Z,11.60
2023-05-25T07:39:01.704Z,14.77
2023-05-25T07:41:31.198Z,14.33
2023-05-25T07:43:59.435Z,12.93
2023-05-25T07:46:28.314Z,12.07
2023-05-25T07:48:58.380Z,14.93
2023-05-25T07:51:27.228Z,12.93
2023-05-25T07:53:56.589Z,9.17
2023-05-25T07:56:24.928Z,12.43
2023-05-25T07:58:54.555Z,10.10
2023-05-25T08:01:26.869Z,12.93
2023-05-25T08:03:55.590Z,11.30
2023-05-25T08:06:24.313Z,13.27
2023-05-25T08:08:55.907Z,11.67
2023-05-25T08:11:28.847Z,11.00
2023-05-25T08:14:00.383Z,15.50
2023-05-25T08:16:28.980Z,17.63
2023-05-25T08:19:01.853Z,13.70
2023-05-25T08:21:30.758Z,9.77
2023-05-25T08:24:06.065Z,14.43
2023-05-25T08:26:53.296Z,15.10
2023-05-25T08:29:24.403Z,10.03
2023-05-25T08:31:55.172Z,10.97
2023-05-25T08:34:26.261Z,12.10
2023-05-25T08:36:54.454Z,11.33
2023-05-25T08:39:22.667Z,11.97
2023-05-25T08:41:52.520Z,12.67
2023-05-25T08:44:22.241Z,18.60
2023-05-25T08:46:52.672Z,20.23
2023-05-25T08:49:23.514Z,12.07
2023-05-25T08:51:53.562Z,15.43
2023-05-25T08:54:26.416Z,10.50
2023-05-25T08:56:59.962Z,15.10
2023-05-25T08:59:38.253Z,15.30
2023-05-25T09:02:22.498Z,9.33
2023-05-25T09:04:51.013Z,10.80
2023-05-25T09:07:23.105Z,10.60
2023-05-25T09:09:52.692Z,10.57
2023-05-25T09:12:22.499Z,15.90
2023-05-25T09:14:50.794Z,18.17
2023-05-25T09:17:21.280Z,17.63
2023-05-25T09:19:49.551Z,10.70
2023-05-25T09:22:18.170Z,10.43
2023-05-25T09:24:46.915Z,10.63
2023-05-25T09:27:19.133Z,12.37
2023-05-25T09:29:49.665Z,12.30
2023-05-25T09:32:18.404Z,9.13
2023-05-25T09:34:48.468Z,13.33
2023-05-25T09:37:19.428Z,9.77
2023-05-25T09:39:48.895Z,10.10
2023-05-25T09:42:17.367Z,10.23
2023-05-25T09:44:45.859Z,15.03
2023-05-25T09:47:16.957Z,11.30
2023-05-25T09:49:47.722Z,13.63
2023-05-25T09:52:18.303Z,12.47
2023-05-25T09:54:48.556Z,12.47
2023-05-25T09:57:17.709Z,15.47
2023-05-25T09:59:46.342Z,15.83
2023-05-25T10:02:15.424Z,12.47
2023-05-25T10:04:43.705Z,11.47
2023-05-25T10:07:12.382Z,11.37
2023-05-25T10:09:44.205Z,11.47
2023-05-25T10:12:15.758Z,13.47
2023-05-25T10:14:45.349Z,13.97
2023-05-25T10:17:16.828Z,16.87
2023-05-25T10:19:52.739Z,11.83
2023-05-25T10:22:23.058Z,11.67
2023-05-25T10:24:57.025Z,13.50
2023-05-25T10:27:28.202Z,12.67
2023-05-25T10:29:58.266Z,13.97
2023-05-25T10:32:30.644Z,11.77
2023-05-25T10:34:59.560Z,11.13
2023-05-25T10:37:32.081Z,17.23
2023-05-25T10:40:02.565Z,12.20
2023-05-25T10:42:31.945Z,10.53
2023-05-25T10:45:00.740Z,16.83
2023-05-25T10:47:29.275Z,17.53
2023-05-25T10:50:03.176Z,12.30
2023-05-25T10:52:32.719Z,13.53
2023-05-25T10:55:05.109Z,10.77
2023-05-25T10:57:33.549Z,11.23
2023-05-25T11:00:08.481Z,10.10
2023-05-25T11:02:51.613Z,9.43
2023-05-25T11:05:34.177Z,11.70
2023-05-25T11:08:05.087Z,11.00
2023-05-25T11:10:52.952Z,12.90
2023-05-25T11:13:41.422Z,17.13
2023-05-25T11:16:14.432Z,15.70
2023-05-25T11:18:44.077Z,10.53
2023-05-25T11:21:14.118Z,10.30
2023-05-25T11:23:54.547Z,12.23
2023-05-25T11:26:26.205Z,9.67
2023-05-25T11:28:55.043Z,11.90
2023-05-25T11:31:30.174Z,11.70
2023-05-25T11:33:59.474Z,10.60
2023-05-25T11:36:31.648Z,8.93
2023-05-25T11:39:04.866Z,13.37
2023-05-25T11:41:39.084Z,11.27
2023-05-25T11:44:08.145Z,9.77
2023-05-25T11:46:38.877Z,10.80
2023-05-25T11:49:07.694Z,11.77
2023-05-25T11:51:36.498Z,10.53
2023-05-25T11:54:05.100Z,12.10
2023-05-25T11:56:36.019Z,12.93
2023-05-25T11:59:09.156Z,14.27
2023-05-25T12:01:39.769Z,13.30
2023-05-25T12:04:10.677Z,13.37
2023-05-25T12:06:39.997Z,14.37
2023-05-25T12:09:13.888Z,9.30
2023-05-25T12:11:45.725Z,8.80
2023-05-25T12:14:15.938Z,10.53
2023-05-25T12:16:44.521Z,10.20
2023-05-25T12:19:13.265Z,13.50
2023-05-25T12:21:42.515Z,10.07
2023-05-25T12:24:12.938Z,7.80
2023-05-25T12:26:51.127Z,10.47
2023-05-25T12:29:20.808Z,9.90
2023-05-25T12:31:49.143Z,8.93
2023-05-25T12:34:18.763Z,8.23
2023-05-25T12:36:48.182Z,9.60
2023-05-25T12:39:32.572Z,10.83
2023-05-25T12:42:02.102Z,9.40
2023-05-25T12:44:34.357Z,10.63
2023-05-25T12:47:12.561Z,10.23
2023-05-25T12:49:42.264Z,11.83
2023-05-25T12:52:11.963Z,10.33
2023-05-25T12:54:45.484Z,8.10
2023-05-25T12:57:15.413Z,9.50
2023-05-25T12:59:46.869Z,15.83
2023-05-25T13:02:15.953Z,11.20
2023-05-25T13:04:44.661Z,8.87
2023-05-25T13:07:13.085Z,9.13
2023-05-25T13:09:42.649Z,7.07
2023-05-25T13:12:11.318Z,7.37
2023-05-25T13:14:39.610Z,7.10
2023-05-25T13:17:09.501Z,8.20
2023-05-25T13:19:37.775Z,11.67
2023-05-25T13:22:09.294Z,9.20
2023-05-25T13:24:40.519Z,10.20
2023-05-25T13:27:08.901Z,7.53
2023-05-25T13:29:37.136Z,6.40
2023-05-25T13:32:06.024Z,8.63
2023-05-25T13:34:38.855Z,7.10
2023-05-25T13:37:07.260Z,6.20
2023-05-25T13:39:35.624Z,9.07
2023-05-25T13:42:03.862Z,9.57
2023-05-25T13:44:33.976Z,8.63
2023-05-25T13:47:02.393Z,9.10
2023-05-25T13:49:30.685Z,8.80
2023-05-25T13:52:00.313Z,7.67
2023-05-25T13:54:28.530Z,7.70
2023-05-25T13:56:56.768Z,9.43
2023-05-25T13:59:25.210Z,6.93
2023-05-25T14:01:55.826Z,7.63
2023-05-25T14:04:24.773Z,7.83
2023-05-25T14:06:52.985Z,10.47
2023-05-25T14:09:22.765Z,8.13
2023-05-25T14:11:53.599Z,8.00
2023-05-25T14:14:31.324Z,6.80
2023-05-25T14:17:01.288Z,8.67
2023-05-25T14:19:29.943Z,7.40
2023-05-25T14:24:31.013Z,10.07
2023-05-25T14:27:01.771Z,8.17
2023-05-25T14:29:30.038Z,9.90
2023-05-25T14:31:58.278Z,9.07
2023-05-25T14:34:26.627Z,12.60
2023-05-25T14:36:54.936Z,8.63
2023-05-25T14:39:23.142Z,7.70
2023-05-25T14:41:55.242Z,7.93
2023-05-25T14:44:23.470Z,9.50
2023-05-25T14:46:52.016Z,7.00
2023-05-25T14:49:21.481Z,8.63
2023-05-25T14:51:49.907Z,9.93
2023-05-25T14:54:18.311Z,7.00
2023-05-25T14:56:46.596Z,8.20
2023-05-25T14:59:16.288Z,6.30
2023-05-25T15:01:46.662Z,7.57
2023-05-25T15:04:15.199Z,9.50
2023-05-25T15:06:43.613Z,8.33
2023-05-25T15:09:13.343Z,6.90
2023-05-25T15:11:41.517Z,9.07
2023-05-25T15:14:09.777Z,7.47
2023-05-25T15:16:40.023Z,9.70
2023-05-25T15:19:10.610Z,6.53
2023-05-25T15:21:40.100Z,8.03
2023-05-25T15:24:09.004Z,8.87
2023-05-25T15:26:37.323Z,6.23
2023-05-25T15:29:05.723Z,6.83
2023-05-25T15:31:34.137Z,11.07
2023-05-25T15:34:03.828Z,10.43
2023-05-25T15:36:32.829Z,8.20
2023-05-25T15:39:01.477Z,8.70
2023-05-25T15:41:29.700Z,7.50
2023-05-25T15:44:01.122Z,6.40
2023-05-25T15:46:29.693Z,6.50
2023-05-25T15:48:57.900Z,9.37
2023-05-25T15:51:27.414Z,8.23
2023-05-25T15:53:55.663Z,9.40
2023-05-25T15:56:23.947Z,8.47
2023-05-25T15:58:52.973Z,6.87
2023-05-25T16:01:21.322Z,12.17
2023-05-25T16:03:49.993Z,8.33
2023-05-25T16:06:18.306Z,10.13
2023-05-25T16:08:47.933Z,10.07
2023-05-25T16:11:16.138Z,8.33
2023-05-25T16:13:44.503Z,7.27
2023-05-25T16:16:12.717Z,11.03
2023-05-25T16:18:41.718Z,6.63
2023-05-25T16:21:09.943Z,11.20
2023-05-25T16:23:39.931Z,9.00
2023-05-25T16:26:10.236Z,8.20
2023-05-25T16:28:38.740Z,8.80
2023-05-25T16:31:07.197Z,8.90
2023-05-25T16:33:35.742Z,8.40
2023-05-25T16:36:04.006Z,8.40
2023-05-25T16:38:35.944Z,10.17
2023-05-25T16:41:04.256Z,5.80
2023-05-25T16:43:33.867Z,8.13
2023-05-25T16:46:02.129Z,8.30
2023-05-25T16:48:32.343Z,6.30
2023-05-25T16:51:00.712Z,6.80
2023-05-25T16:53:29.068Z,5.90
2023-05-25T16:55:57.436Z,9.80
2023-05-25T16:58:25.833Z,9.90
2023-05-25T17:00:55.573Z,9.40
2023-05-25T17:03:26.424Z,6.33
2023-05-25T17:05:54.798Z,5.70
2023-05-25T17:08:26.803Z,7.10
2023-05-25T17:10:57.144Z,7.50
2023-05-25T17:13:25.397Z,7.93
2023-05-25T17:15:55.358Z,7.00
2023-05-25T17:18:23.989Z,7.53
2023-05-25T17:20:52.412Z,7.70
2023-05-25T17:23:23.505Z,6.87
2023-05-25T17:25:54.907Z,6.63
2023-05-25T17:28:23.163Z,6.77
2023-05-25T17:30:51.618Z,7.30
2023-05-25T17:33:21.206Z,5.90
2023-05-25T17:35:49.552Z,6.10
2023-05-25T17:38:17.880Z,6.33
2023-05-25T17:40:47.567Z,6.47
2023-05-25T17:43:16.275Z,5.40
2023-05-25T17:45:44.626Z,5.43
2023-05-25T17:48:13.091Z,5.83
2023-05-25T17:50:45.222Z,7.30
2023-05-25T17:53:13.421Z,6.20
2023-05-25T17:55:41.699Z,7.37
2023-05-25T17:58:10.108Z,5.87
2023-05-25T18:00:38.337Z,5.70
2023-05-25T18:03:06.674Z,8.20
2023-05-25T18:05:34.994Z,5.23
2023-05-25T18:08:05.433Z,6.47
2023-05-25T18:10:33.810Z,8.90
2023-05-25T18:13:02.059Z,6.27
2023-05-25T18:15:30.273Z,6.37
2023-05-25T18:17:58.730Z,7.53
2023-05-25T18:20:26.951Z,5.40
2023-05-25T18:22:55.371Z,5.13
2023-05-25T18:25:24.923Z,6.40
2023-05-25T18:27:53.309Z,4.80
2023-05-25T18:30:21.486Z,10.17
2023-05-25T18:32:49.792Z,6.30
2023-05-25T18:35:18.135Z,6.83
2023-05-25T18:37:46.341Z,5.87
2023-05-25T18:40:14.868Z,5.23
2023-05-25T18:42:44.548Z,9.23
2023-05-25T18:45:12.842Z,7.43
2023-05-25T18:47:52.385Z,6.33
2023-05-25T18:50:22.181Z,6.53
2023-05-25T18:52:51.602Z,7.03
2023-05-25T18:55:20.127Z,7.33
2023-05-25T18:57:49.762Z,5.67
2023-05-25T19:00:18.685Z,6.00
2023-05-25T19:02:47.066Z,7.97
2023-05-25T19:05:15.460Z,5.37
2023-05-25T19:10:20.184Z,7.53
2023-05-25T19:12:53.155Z,7.93
2023-05-25T19:15:25.274Z,7.47
2023-05-25T19:17:59.017Z,8.83
2023-05-25T19:20:28.148Z,6.00
2023-05-25T19:23:00.033Z,6.80
2023-05-25T19:25:28.266Z,5.83
2023-05-25T19:28:00.512Z,7.97
2023-05-25T19:30:31.233Z,8.97
2023-05-25T19:33:01.318Z,7.27
2023-05-25T19:35:29.702Z,5.70
2023-05-25T19:37:59.276Z,7.20
2023-05-25T19:40:28.741Z,6.87
2023-05-25T19:42:58.283Z,7.10
2023-05-25T19:45:26.953Z,6.03
2023-05-25T19:47:55.876Z,8.37
2023-05-25T19:50:24.088Z,7.80
2023-05-25T19:52:52.314Z,8.13
2023-05-25T19:55:20.525Z,10.43
2023-05-25T19:57:48.750Z,9.23
2023-05-25T20:00:26.030Z,6.20
2023-05-25T20:02:55.911Z,7.20
2023-05-25T20:05:24.309Z,6.60
2023-05-25T20:07:52.793Z,8.93
2023-05-25T20:10:21.329Z,7.23
2023-05-25T20:12:49.567Z,6.30
2023-05-25T20:15:23.971Z,5.63
2023-05-25T20:17:52.389Z,6.40
2023-05-25T20:20:21.119Z,6.30
2023-05-25T20:22:49.476Z,6.40
2023-05-25T20:25:17.793Z,7.30
2023-05-25T20:27:55.234Z,11.00
2023-05-25T20:30:25.011Z,10.57
2023-05-25T20:32:53.220Z,11.03
2023-05-25T20:35:46.705Z,7.80
2023-05-25T20:38:19.217Z,10.17
2023-05-25T20:40:47.365Z,8.57
2023-05-25T20:43:15.578Z,11.20
2023-05-25T20:46:14.395Z,10.37
2023-05-25T20:48:42.621Z,9.30
2023-05-25T20:51:12.639Z,9.00
2023-05-25T20:56:34.982Z,6.70
2023-05-25T20:59:03.163Z,7.73
2023-05-25T21:01:59.130Z,6.63
2023-05-25T21:04:31.778Z,7.60
2023-05-25T21:07:00.215Z,8.10
2023-05-25T21:09:37.261Z,9.57
2023-05-25T21:12:13.318Z,9.00
2023-05-25T21:14:42.604Z,6.60
2023-05-25T21:17:12.209Z,7.33
2023-05-25T21:19:50.215Z,8.10
2023-05-25T21:22:18.638Z,5.27
2023-05-25T21:24:46.873Z,6.63
2023-05-25T21:27:15.136Z,4.87
2023-05-25T21:29:43.354Z,6.97
2023-05-25T21:32:12.980Z,9.87
2023-05-25T21:34:44.055Z,5.83
2023-05-25T21:37:14.093Z,12.00
2023-05-25T21:39:42.273Z,8.40
2023-05-25T21:42:12.678Z,6.00
2023-05-25T21:44:40.929Z,5.50
2023-05-25T21:47:13.895Z,5.40
2023-05-25T21:49:42.205Z,5.43
2023-05-25T21:52:28.482Z,4.53
2023-05-25T21:54:56.666Z,4.63
2023-05-25T21:57:24.842Z,5.20
2023-05-25T21:59:53.077Z,4.73
2023-05-25T22:02:23.216Z,3.90
2023-05-25T22:04:51.553Z,6.10
2023-05-25T22:07:20.830Z,5.60
2023-05-25T22:10:14.288Z,5.63
2023-05-25T22:12:42.544Z,4.20
2023-05-25T22:15:11.147Z,6.13
2023-05-25T22:17:40.910Z,5.20
2023-05-25T22:20:09.961Z,7.20
2023-05-25T22:22:38.391Z,6.80
2023-05-25T22:25:07.913Z,8.70
2023-05-25T22:27:36.324Z,6.50
2023-05-25T22:30:04.950Z,5.20
2023-05-25T22:32:33.239Z,5.27
2023-05-25T22:35:03.206Z,7.67
2023-05-25T22:37:31.459Z,5.40
2023-05-25T22:39:59.709Z,6.50
2023-05-25T22:42:27.954Z,5.63
2023-05-25T22:44:56.196Z,7.73
2023-05-25T22:47:26.912Z,6.73
2023-05-25T22:49:55.241Z,7.63
2023-05-25T22:52:24.868Z,10.53
2023-05-25T22:54:53.140Z,6.50
2023-05-25T22:57:21.471Z,7.80
2023-05-25T22:59:50.049Z,6.77
2023-05-25T23:02:18.317Z,6.97
2023-05-25T23:04:46.557Z,6.23
2023-05-25T23:07:14.780Z,9.50
2023-05-25T23:09:46.631Z,6.37
2023-05-25T23:12:18.228Z,5.67
2023-05-25T23:14:46.426Z,8.40
2023-05-25T23:17:17.789Z,4.90
2023-05-25T23:19:53.567Z,4.73
2023-05-25T23:22:21.838Z,7.20
2023-05-25T23:24:51.423Z,6.50
2023-05-25T23:27:19.720Z,4.73
2023-05-25T23:29:53.868Z,5.50
2023-05-25T23:32:22.281Z,6.77
2023-05-25T23:34:50.721Z,6.20
2023-05-25T23:37:18.928Z,7.70
2023-05-25T23:39:58.314Z,5.00
2023-05-25T23:42:38.278Z,4.17
2023-05-25T23:45:08.183Z,6.67
2023-05-25T23:47:39.204Z,4.60
2023-05-25T23:50:11.177Z,4.60
2023-05-25T23:52:45.233Z,7.80
2023-05-25T23:55:13.940Z,6.80
2023-05-25T23:57:57.485Z,6.63
